Time;durP1;ratioP1;P1;durP2;ratioP2;P2;SDS_P1;SDS_P2;PMS_P1;PMS_P2;Temp;Humidity;BMP_temperature;BMP_pressure;BME280_temperature;BME280_humidity;BME280_pressure;Samples;Min_cycle;Max_cycle;Signal;HPM_P1;HPM_P2
2024/01/06 00:02:07;;;;;;;0.60;0.60;;;11.20;71.20;;;;;;5076241;28;20455;-74
2024/01/06 00:04:33;;;;;;;0.40;0.40;;;11.20;71.10;;;;;;5077891;28;20040;-75
2024/01/06 00:06:58;;;;;;;1.67;1.00;;;11.10;71.10;;;;;;5086141;28;20423;-75
2024/01/06 00:09:24;;;;;;;0.77;0.77;;;11.20;71.00;;;;;;5067327;28;20036;-76
2024/01/06 00:11:49;;;;;;;0.50;0.50;;;11.20;71.00;;;;;;5079104;28;20043;-75
2024/01/06 00:14:15;;;;;;;0.55;0.55;;;11.10;71.00;;;;;;5076010;28;20024;-75
2024/01/06 00:16:41;;;;;;;0.70;0.70;;;11.20;70.90;;;;;;5079081;28;20400;-75
2024/01/06 00:19:06;;;;;;;0.95;0.95;;;11.20;70.80;;;;;;5069395;28;20104;-76
2024/01/06 00:21:32;;;;;;;0.70;0.70;;;11.20;71.00;;;;;;5084769;28;20054;-76
2024/01/06 00:23:57;;;;;;;0.70;0.70;;;11.20;70.80;;;;;;5077160;28;20028;-75
2024/01/06 00:26:24;;;;;;;0.45;0.45;;;11.20;70.70;;;;;;5075191;28;20040;-76
2024/01/06 00:28:50;;;;;;;0.52;0.52;;;11.10;70.60;;;;;;5077593;28;20016;-75
2024/01/06 00:31:17;;;;;;;0.60;0.60;;;11.00;70.70;;;;;;5078832;28;20036;-76
2024/01/06 00:33:42;;;;;;;0.77;0.77;;;11.00;70.60;;;;;;5080272;28;20730;-76
2024/01/06 00:36:09;;;;;;;0.45;0.45;;;11.00;70.70;;;;;;5076845;28;20103;-75
2024/01/06 00:38:35;;;;;;;0.63;0.63;;;10.90;70.70;;;;;;5082408;28;20020;-76
2024/01/06 00:41:01;;;;;;;0.60;0.60;;;10.90;70.80;;;;;;5076422;28;20024;-75
2024/01/06 00:43:26;;;;;;;0.50;0.50;;;10.90;70.60;;;;;;5083039;28;20032;-75
2024/01/06 00:45:52;;;;;;;1.50;1.40;;;10.90;70.70;;;;;;5078979;28;20062;-75
2024/01/06 00:48:17;;;;;;;0.80;0.80;;;10.80;70.80;;;;;;5077606;28;20062;-75
2024/01/06 00:50:43;;;;;;;0.93;0.93;;;10.90;70.70;;;;;;5072314;28;20086;-76
2024/01/06 00:53:08;;;;;;;0.68;0.68;;;10.90;70.70;;;;;;5083137;28;20500;-76
2024/01/06 00:55:34;;;;;;;0.60;0.60;;;10.80;70.50;;;;;;5080952;28;20037;-76
2024/01/06 00:58:00;;;;;;;0.50;0.50;;;10.80;70.50;;;;;;5075954;28;20032;-75
2024/01/06 01:00:27;;;;;;;0.70;0.70;;;10.80;70.70;;;;;;5057855;28;20543;-75
2024/01/06 01:02:52;;;;;;;1.35;1.25;;;10.80;70.70;;;;;;5083318;28;20106;-75
2024/01/06 01:05:18;;;;;;;0.60;0.60;;;10.80;70.70;;;;;;5078193;28;20142;-75
2024/01/06 01:07:44;;;;;;;0.65;0.65;;;10.80;70.60;;;;;;5076618;28;20040;-75
2024/01/06 01:10:10;;;;;;;0.75;0.75;;;10.70;70.60;;;;;;5078072;28;20044;-75
2024/01/06 01:12:36;;;;;;;0.88;0.88;;;10.80;70.60;;;;;;5080806;28;20032;-76
2024/01/06 01:15:01;;;;;;;0.45;0.45;;;10.70;70.80;;;;;;5086547;28;20036;-76
2024/01/06 01:17:27;;;;;;;1.05;1.05;;;10.80;70.80;;;;;;5074832;28;20388;-76
2024/01/06 01:19:52;;;;;;;0.63;0.63;;;10.80;70.80;;;;;;5082941;28;20384;-75
2024/01/06 01:22:18;;;;;;;0.50;0.50;;;10.80;70.80;;;;;;5079984;28;20069;-75
2024/01/06 01:24:43;;;;;;;0.57;0.57;;;10.80;70.60;;;;;;5071606;28;20027;-76
2024/01/06 01:27:09;;;;;;;0.50;0.50;;;10.80;70.70;;;;;;5073922;28;20537;-75
2024/01/06 01:29:35;;;;;;;0.60;0.60;;;10.80;70.80;;;;;;5079016;28;20082;-75
2024/01/06 01:32:00;;;;;;;0.60;0.60;;;10.80;70.90;;;;;;5086273;28;20330;-75
2024/01/06 01:34:26;;;;;;;0.70;0.70;;;10.80;71.00;;;;;;5086224;28;20723;-75
2024/01/06 01:36:51;;;;;;;0.63;0.63;;;10.90;71.00;;;;;;5077634;28;20103;-74
2024/01/06 01:39:17;;;;;;;0.50;0.50;;;10.90;71.00;;;;;;5089620;28;20046;-74
2024/01/06 01:41:43;;;;;;;0.60;0.60;;;10.90;71.00;;;;;;5086723;28;20037;-74
2024/01/06 01:44:08;;;;;;;0.60;0.60;;;10.90;70.90;;;;;;5064943;28;20028;-74
2024/01/06 01:46:34;;;;;;;0.65;0.65;;;11.00;70.90;;;;;;5079291;28;20392;-75
2024/01/06 01:49:01;;;;;;;0.70;0.70;;;11.00;70.80;;;;;;5089078;28;20564;-75
2024/01/06 01:51:29;;;;;;;0.70;0.70;;;11.00;70.60;;;;;;5074896;28;20024;-72
2024/01/06 01:53:55;;;;;;;0.60;0.60;;;11.00;70.60;;;;;;5070203;28;20078;-71
2024/01/06 01:56:21;;;;;;;0.60;0.60;;;11.00;70.70;;;;;;5060263;28;20040;-71
2024/01/06 01:58:47;;;;;;;0.40;0.40;;;11.00;70.70;;;;;;5072245;28;20025;-71
2024/01/06 02:01:14;;;;;;;0.52;0.52;;;11.00;70.50;;;;;;5053702;28;20407;-72
2024/01/06 02:03:42;;;;;;;0.77;0.77;;;11.00;70.30;;;;;;5073744;28;20567;-71
2024/01/06 02:06:07;;;;;;;0.70;0.70;;;11.00;70.20;;;;;;5078425;28;20379;-72
2024/01/06 02:08:33;;;;;;;0.70;0.70;;;10.90;70.20;;;;;;5081395;28;20495;-72
2024/01/06 02:10:58;;;;;;;0.52;0.52;;;10.90;70.20;;;;;;5072348;28;20029;-72
2024/01/06 02:13:24;;;;;;;0.57;0.57;;;10.80;70.10;;;;;;5083780;28;20036;-71
2024/01/06 02:15:49;;;;;;;0.50;0.50;;;10.80;70.20;;;;;;5075533;28;20032;-71
2024/01/06 02:18:15;;;;;;;3.53;0.85;;;10.80;70.20;;;;;;5081963;28;20024;-70
2024/01/06 02:20:46;;;;;;;0.70;0.70;;;10.80;70.30;;;;;;5073362;28;20068;-71
2024/01/06 02:23:11;;;;;;;0.50;0.50;;;10.80;70.40;;;;;;5084085;28;20028;-71
2024/01/06 02:25:37;;;;;;;0.60;0.60;;;10.80;70.50;;;;;;5072893;28;20475;-71
2024/01/06 02:28:03;;;;;;;0.40;0.40;;;10.80;70.20;;;;;;5078168;28;20050;-72
2024/01/06 02:30:28;;;;;;;0.60;0.60;;;10.70;70.50;;;;;;5080785;28;20093;-71
2024/01/06 02:32:53;;;;;;;0.70;0.70;;;10.80;70.40;;;;;;5071025;28;20028;-71
2024/01/06 02:35:21;;;;;;;0.70;0.70;;;10.80;70.40;;;;;;5085136;28;20329;-70
2024/01/06 02:37:46;;;;;;;0.93;0.93;;;10.80;70.50;;;;;;5077223;28;20033;-70
2024/01/06 02:40:13;;;;;;;0.70;0.70;;;10.80;70.60;;;;;;5078012;28;20502;-70
2024/01/06 02:42:39;;;;;;;1.38;1.27;;;10.80;70.20;;;;;;5073213;28;20024;-71
2024/01/06 02:45:05;;;;;;;0.50;0.50;;;10.70;69.70;;;;;;5083658;28;20391;-71
2024/01/06 02:47:31;;;;;;;0.70;0.70;;;10.70;69.30;;;;;;5071405;28;20092;-70
2024/01/06 02:49:56;;;;;;;0.65;0.65;;;10.60;68.90;;;;;;5076200;28;20476;-71
2024/01/06 02:52:22;;;;;;;0.60;0.60;;;10.40;68.80;;;;;;5056728;28;20032;-72
2024/01/06 02:54:48;;;;;;;0.80;0.80;;;10.30;68.90;;;;;;5082474;28;20020;-70
2024/01/06 02:57:13;;;;;;;0.70;0.70;;;10.30;69.00;;;;;;5072154;28;20364;-71
2024/01/06 02:59:39;;;;;;;0.52;0.52;;;10.20;69.20;;;;;;5072841;28;20039;-70
2024/01/06 03:02:06;;;;;;;0.50;0.50;;;10.20;69.20;;;;;;5096690;28;20025;-74
2024/01/06 03:04:31;;;;;;;0.70;0.70;;;10.10;69.10;;;;;;5075887;28;20630;-74
2024/01/06 03:06:57;;;;;;;0.60;0.60;;;10.00;68.90;;;;;;5086024;28;20336;-75
2024/01/06 03:09:22;;;;;;;0.95;0.95;;;9.90;68.80;;;;;;5097784;28;22284;-74
2024/01/06 03:11:48;;;;;;;1.13;0.60;;;9.80;68.70;;;;;;5071736;28;20027;-74
2024/01/06 03:14:13;;;;;;;0.98;0.98;;;9.80;68.90;;;;;;5096060;28;20137;-74
2024/01/06 03:16:39;;;;;;;0.57;0.57;;;9.80;69.30;;;;;;5091124;28;20036;-74
2024/01/06 03:19:04;;;;;;;0.85;0.85;;;9.80;69.70;;;;;;5082747;28;20025;-74
2024/01/06 03:21:30;;;;;;;0.50;0.50;;;9.80;70.10;;;;;;5091138;28;20072;-74
2024/01/06 03:23:55;;;;;;;0.60;0.60;;;9.90;70.30;;;;;;5103322;28;20032;-74
2024/01/06 03:26:21;;;;;;;0.60;0.60;;;10.00;70.50;;;;;;5091768;28;20369;-73
2024/01/06 03:28:49;;;;;;;0.70;0.70;;;10.00;70.50;;;;;;5099482;28;20142;-76
2024/01/06 03:31:15;;;;;;;1.23;1.17;;;10.10;70.60;;;;;;5098392;28;20045;-73
2024/01/06 03:33:40;;;;;;;1.15;1.05;;;10.10;70.70;;;;;;5089522;28;20046;-74
2024/01/06 03:36:07;;;;;;;0.60;0.60;;;10.20;70.70;;;;;;5098651;28;20028;-73
2024/01/06 03:38:33;;;;;;;0.52;0.52;;;10.20;70.70;;;;;;5094179;28;20020;-74
2024/01/06 03:40:58;;;;;;;0.60;0.60;;;10.20;70.90;;;;;;5086473;28;20035;-76
2024/01/06 03:43:24;;;;;;;0.60;0.60;;;10.30;70.90;;;;;;5096155;28;20088;-74
2024/01/06 03:45:49;;;;;;;0.60;0.60;;;10.30;70.80;;;;;;5086070;28;20043;-75
2024/01/06 03:48:15;;;;;;;0.98;0.95;;;10.30;70.80;;;;;;5095896;28;20101;-74
2024/01/06 03:50:40;;;;;;;0.50;0.50;;;10.30;70.80;;;;;;5099322;28;20032;-74
2024/01/06 03:53:05;;;;;;;0.65;0.65;;;10.40;70.80;;;;;;5085713;28;20024;-74
2024/01/06 03:55:31;;;;;;;1.08;0.80;;;10.40;70.90;;;;;;5083622;28;20086;-74
2024/01/06 03:57:56;;;;;;;0.50;0.50;;;10.50;70.90;;;;;;5085756;28;20043;-73
2024/01/06 04:00:23;;;;;;;1.42;1.27;;;10.50;70.80;;;;;;5093327;28;20043;-74
2024/01/06 04:02:48;;;;;;;0.70;0.70;;;10.50;70.60;;;;;;5088178;28;20046;-74
2024/01/06 04:05:14;;;;;;;0.82;0.82;;;10.50;70.70;;;;;;5097947;28;20035;-74
2024/01/06 04:07:39;;;;;;;0.50;0.50;;;10.60;70.80;;;;;;5087561;28;20111;-75
2024/01/06 04:10:05;;;;;;;0.60;0.60;;;10.60;70.90;;;;;;5085532;28;20032;-72
2024/01/06 04:12:30;;;;;;;0.57;0.57;;;10.60;71.00;;;;;;5078987;28;20030;-71
2024/01/06 04:14:56;;;;;;;0.50;0.50;;;10.70;71.00;;;;;;5082733;28;20042;-72
2024/01/06 04:17:21;;;;;;;0.60;0.60;;;10.70;71.00;;;;;;5061815;28;20031;-71
2024/01/06 04:19:47;;;;;;;0.50;0.50;;;10.70;71.00;;;;;;5084535;28;20149;-75
2024/01/06 04:22:13;;;;;;;0.50;0.50;;;10.80;70.90;;;;;;5094726;28;20052;-75
2024/01/06 04:24:38;;;;;;;0.40;0.40;;;10.80;71.00;;;;;;5088046;28;20033;-75
2024/01/06 04:27:04;;;;;;;0.50;0.50;;;10.80;71.00;;;;;;5099439;28;20025;-75
2024/01/06 04:29:30;;;;;;;0.50;0.50;;;10.80;71.00;;;;;;5087748;28;20032;-74
2024/01/06 04:31:55;;;;;;;0.50;0.50;;;10.90;70.90;;;;;;5098170;28;20023;-75
2024/01/06 04:34:21;;;;;;;0.60;0.60;;;10.90;70.80;;;;;;5094416;28;20094;-75
2024/01/06 04:36:46;;;;;;;0.60;0.60;;;10.90;70.70;;;;;;5090212;28;20028;-75
2024/01/06 04:39:13;;;;;;;0.60;0.60;;;10.90;70.70;;;;;;5084079;28;20459;-74
2024/01/06 04:41:40;;;;;;;0.80;0.80;;;10.90;70.70;;;;;;5091534;28;20012;-73
2024/01/06 04:44:05;;;;;;;0.50;0.50;;;10.90;70.70;;;;;;5079392;28;20028;-73
2024/01/06 04:46:31;;;;;;;0.63;0.63;;;10.90;70.70;;;;;;5101073;28;20027;-73
2024/01/06 04:48:56;;;;;;;0.80;0.80;;;10.90;70.60;;;;;;5094158;28;20021;-73
2024/01/06 04:51:22;;;;;;;0.50;0.50;;;11.00;70.60;;;;;;5105149;28;20088;-74
2024/01/06 04:53:47;;;;;;;1.05;1.05;;;11.00;70.80;;;;;;5099326;28;20099;-75
2024/01/06 04:56:13;;;;;;;0.43;0.43;;;10.90;70.80;;;;;;5102446;28;20079;-75
2024/01/06 04:58:38;;;;;;;0.50;0.50;;;11.00;70.80;;;;;;5106773;28;20000;-74
2024/01/06 05:01:04;;;;;;;1.20;1.10;;;10.90;70.80;;;;;;5096542;28;20041;-74
2024/01/06 05:03:30;;;;;;;0.50;0.50;;;11.00;70.80;;;;;;5090036;28;20017;-75
2024/01/06 05:05:56;;;;;;;0.60;0.60;;;11.00;70.90;;;;;;5101840;28;20037;-74
2024/01/06 05:08:22;;;;;;;0.57;0.57;;;11.00;70.90;;;;;;5100964;28;20127;-75
2024/01/06 05:10:48;;;;;;;0.50;0.50;;;11.00;70.80;;;;;;5105467;28;20072;-75
2024/01/06 05:13:14;;;;;;;0.50;0.50;;;11.10;70.80;;;;;;5109540;28;20012;-74
2024/01/06 05:15:39;;;;;;;0.55;0.55;;;11.10;70.80;;;;;;5099338;28;20074;-75
2024/01/06 05:18:05;;;;;;;0.60;0.60;;;11.10;70.60;;;;;;5103935;28;20029;-75
2024/01/06 05:20:31;;;;;;;1.08;1.08;;;11.10;70.70;;;;;;5099761;28;20538;-73
2024/01/06 05:22:56;;;;;;;0.65;0.65;;;11.10;70.60;;;;;;5054375;28;20021;-73
2024/01/06 05:25:22;;;;;;;0.93;0.93;;;11.10;70.50;;;;;;5085097;28;20036;-74
2024/01/06 05:27:47;;;;;;;0.60;0.60;;;11.10;70.40;;;;;;5058399;28;20375;-70
2024/01/06 05:30:13;;;;;;;1.08;1.08;;;11.00;70.50;;;;;;5077761;28;20161;-73
2024/01/06 05:37:49;;;;;;;0.50;0.50;;;11.00;70.00;;;;;;5863867;22;20265;-74
2024/01/06 05:42:42;;;;;;;0.60;0.60;;;10.80;69.70;;;;;;5076291;28;20047;-73
2024/01/06 05:45:11;;;;;;;0.60;0.60;;;10.80;70.00;;;;;;5087963;28;20461;-72
2024/01/06 05:47:37;;;;;;;0.50;0.50;;;10.70;70.10;;;;;;5062479;28;20465;-72
2024/01/06 05:50:03;;;;;;;0.70;0.70;;;10.70;70.20;;;;;;5086997;28;20035;-73
2024/01/06 05:52:28;;;;;;;0.50;0.50;;;10.70;70.30;;;;;;5082560;28;20065;-72
2024/01/06 05:54:54;;;;;;;0.68;0.68;;;10.70;70.30;;;;;;5088566;28;20462;-71
2024/01/06 05:57:19;;;;;;;0.52;0.52;;;10.70;70.30;;;;;;5072187;28;20150;-71
2024/01/06 05:59:44;;;;;;;0.60;0.60;;;10.70;70.20;;;;;;5087022;28;20391;-71
2024/01/06 06:02:10;;;;;;;0.60;0.60;;;10.70;70.30;;;;;;5085077;28;20264;-72
2024/01/06 06:04:35;;;;;;;0.55;0.55;;;10.70;70.30;;;;;;5075423;28;20357;-71
2024/01/06 06:07:02;;;;;;;0.50;0.50;;;10.70;70.40;;;;;;5082443;28;20455;-72
2024/01/06 06:09:28;;;;;;;0.50;0.50;;;10.70;70.30;;;;;;5085107;28;20020;-71
2024/01/06 06:11:54;;;;;;;0.50;0.50;;;10.70;70.20;;;;;;5059831;28;20028;-72
2024/01/06 06:14:19;;;;;;;0.60;0.60;;;10.70;70.30;;;;;;5078671;28;20105;-71
2024/01/06 06:16:46;;;;;;;0.75;0.75;;;10.80;70.30;;;;;;5074056;28;20033;-73
2024/01/06 06:19:12;;;;;;;0.60;0.60;;;10.70;70.30;;;;;;5083576;28;20051;-72
2024/01/06 06:21:37;;;;;;;0.57;0.57;;;10.80;70.30;;;;;;5086218;28;20460;-72
2024/01/06 06:24:03;;;;;;;0.50;0.50;;;10.70;70.30;;;;;;5080657;28;20033;-73
2024/01/06 06:26:29;;;;;;;0.50;0.50;;;10.70;70.20;;;;;;5077272;28;20457;-72
2024/01/06 06:28:55;;;;;;;0.50;0.50;;;10.70;70.10;;;;;;5079311;28;20028;-73
2024/01/06 06:31:20;;;;;;;0.55;0.55;;;10.70;69.80;;;;;;5084789;28;20145;-72
2024/01/06 06:33:46;;;;;;;0.50;0.50;;;10.60;69.70;;;;;;5082937;28;20028;-71
2024/01/06 06:36:11;;;;;;;1.15;1.08;;;10.50;69.10;;;;;;5077511;28;20032;-72
2024/01/06 06:38:37;;;;;;;0.52;0.52;;;10.40;69.10;;;;;;5087409;28;20466;-72
2024/01/06 06:41:03;;;;;;;0.60;0.60;;;10.30;69.30;;;;;;5072258;28;20037;-71
2024/01/06 06:43:28;;;;;;;0.50;0.50;;;10.20;69.40;;;;;;5083782;28;20363;-71
2024/01/06 06:45:55;;;;;;;0.50;0.50;;;10.20;69.70;;;;;;5073449;28;20115;-73
2024/01/06 06:48:21;;;;;;;0.63;0.63;;;10.10;69.60;;;;;;5087032;28;20420;-74
2024/01/06 06:50:46;;;;;;;0.50;0.50;;;10.10;69.60;;;;;;5074836;28;20103;-72
2024/01/06 06:53:12;;;;;;;0.73;0.63;;;10.10;69.70;;;;;;5083864;28;20070;-72
2024/01/06 06:55:38;;;;;;;0.60;0.60;;;10.00;69.80;;;;;;5070751;28;20115;-72
2024/01/06 06:58:05;;;;;;;0.57;0.57;;;10.00;69.70;;;;;;5080260;28;20099;-72
2024/01/06 07:00:30;;;;;;;0.50;0.50;;;10.00;69.70;;;;;;5077818;28;20031;-72
2024/01/06 07:02:56;;;;;;;0.80;0.80;;;10.00;69.60;;;;;;5057691;28;20108;-72
2024/01/06 07:05:22;;;;;;;0.95;0.95;;;9.90;69.50;;;;;;5083718;28;20085;-73
2024/01/06 07:07:47;;;;;;;0.57;0.57;;;9.90;69.70;;;;;;5085014;28;20028;-72
2024/01/06 07:10:13;;;;;;;0.60;0.60;;;9.80;69.70;;;;;;5084603;28;20104;-71
2024/01/06 07:12:39;;;;;;;0.63;0.63;;;9.80;69.70;;;;;;5083373;28;20067;-72
2024/01/06 07:15:05;;;;;;;0.60;0.60;;;9.80;69.70;;;;;;5074645;28;20328;-72
2024/01/06 07:17:30;;;;;;;1.10;1.08;;;9.80;69.90;;;;;;5081314;28;20024;-72
2024/01/06 07:19:56;;;;;;;0.70;0.70;;;9.70;69.90;;;;;;5073896;28;20332;-72
2024/01/06 07:22:21;;;;;;;0.85;0.85;;;9.70;69.90;;;;;;5072627;28;20060;-72
2024/01/06 07:24:47;;;;;;;0.60;0.60;;;9.70;69.90;;;;;;5072944;28;20035;-71
2024/01/06 07:27:12;;;;;;;1.15;1.10;;;9.70;69.70;;;;;;5081384;28;20450;-72
2024/01/06 07:29:38;;;;;;;0.70;0.70;;;9.50;69.80;;;;;;5072583;28;20024;-73
2024/01/06 07:32:06;;;;;;;0.57;0.57;;;9.50;69.90;;;;;;5077632;28;20542;-74
2024/01/06 07:34:31;;;;;;;0.60;0.60;;;9.50;70.10;;;;;;5076041;28;20050;-73
2024/01/06 07:36:57;;;;;;;0.50;0.50;;;9.40;70.10;;;;;;5076066;28;20028;-73
2024/01/06 07:39:24;;;;;;;0.60;0.60;;;9.40;70.10;;;;;;5083334;28;20067;-73
2024/01/06 07:41:49;;;;;;;0.90;0.90;;;9.30;70.10;;;;;;5085798;28;20491;-73
2024/01/06 07:44:16;;;;;;;0.75;0.75;;;9.30;70.10;;;;;;5080280;28;20032;-73
2024/01/06 07:46:41;;;;;;;0.50;0.50;;;9.30;70.20;;;;;;5079295;28;20024;-73
2024/01/06 07:49:07;;;;;;;0.75;0.75;;;9.30;70.30;;;;;;5080993;28;20093;-73
2024/01/06 07:51:34;;;;;;;0.52;0.52;;;9.30;70.40;;;;;;5078487;28;20039;-73
2024/01/06 07:54:00;;;;;;;0.60;0.60;;;9.30;70.40;;;;;;5062586;28;20379;-74
2024/01/06 07:56:26;;;;;;;0.60;0.60;;;9.30;70.30;;;;;;5080422;28;20059;-73
2024/01/06 07:58:52;;;;;;;0.55;0.55;;;9.30;70.30;;;;;;5079338;28;20052;-73
2024/01/06 08:01:18;;;;;;;0.60;0.60;;;9.30;70.40;;;;;;5076017;28;20028;-74
2024/01/06 08:03:44;;;;;;;0.60;0.60;;;9.30;70.50;;;;;;5064872;28;20035;-73
2024/01/06 08:06:10;;;;;;;0.60;0.60;;;9.40;70.50;;;;;;5081589;28;20043;-74
2024/01/06 08:08:35;;;;;;;0.90;0.90;;;9.40;70.40;;;;;;5078523;28;20036;-74
2024/01/06 08:11:01;;;;;;;0.80;0.80;;;9.40;70.40;;;;;;5081903;28;20066;-74
2024/01/06 08:13:26;;;;;;;0.60;0.60;;;9.40;70.40;;;;;;5083808;28;20735;-75
2024/01/06 08:15:52;;;;;;;0.60;0.60;;;9.40;70.40;;;;;;5084805;28;20334;-75
2024/01/06 08:18:18;;;;;;;0.57;0.57;;;9.40;70.40;;;;;;5082498;28;20097;-74
2024/01/06 08:20:43;;;;;;;5.25;0.93;;;9.30;70.30;;;;;;5084354;28;20582;-74
2024/01/06 08:23:10;;;;;;;0.60;0.60;;;9.30;70.30;;;;;;5087318;28;20024;-74
2024/01/06 08:25:36;;;;;;;0.55;0.55;;;9.30;70.20;;;;;;5089067;28;20382;-74
2024/01/06 08:28:01;;;;;;;0.60;0.60;;;9.30;70.20;;;;;;5071924;28;20024;-74
2024/01/06 08:30:29;;;;;;;0.60;0.60;;;9.30;70.30;;;;;;5090358;28;20040;-74
2024/01/06 08:32:55;;;;;;;0.95;0.95;;;9.20;70.20;;;;;;5070790;28;20058;-74
2024/01/06 08:35:20;;;;;;;0.75;0.75;;;9.20;70.30;;;;;;5089936;28;21579;-74
2024/01/06 08:37:46;;;;;;;0.50;0.50;;;9.20;70.10;;;;;;5072111;28;20340;-74
2024/01/06 08:40:12;;;;;;;0.50;0.50;;;9.20;70.10;;;;;;5071707;28;20028;-74
2024/01/06 08:42:37;;;;;;;0.60;0.60;;;9.10;70.10;;;;;;5072120;28;20036;-74
2024/01/06 08:45:04;;;;;;;0.60;0.60;;;9.10;70.10;;;;;;5092096;28;20028;-74
2024/01/06 08:47:30;;;;;;;0.50;0.50;;;9.10;70.00;;;;;;5090574;28;20750;-74
2024/01/06 08:49:56;;;;;;;0.60;0.60;;;9.10;70.00;;;;;;5091356;28;20028;-74
2024/01/06 08:52:21;;;;;;;0.52;0.52;;;9.10;70.10;;;;;;5091434;28;20250;-74
2024/01/06 08:54:47;;;;;;;0.50;0.50;;;9.10;70.00;;;;;;5090312;28;20032;-74
2024/01/06 08:57:13;;;;;;;0.60;0.60;;;9.00;70.00;;;;;;5090155;28;20030;-74
2024/01/06 08:59:39;;;;;;;0.50;0.50;;;8.90;70.10;;;;;;5070521;28;20601;-74
2024/01/06 09:02:05;;;;;;;1.45;0.82;;;9.00;70.30;;;;;;5082176;28;20055;-73
2024/01/06 09:04:30;;;;;;;0.60;0.60;;;9.00;70.40;;;;;;5089370;28;20107;-73
2024/01/06 09:06:59;;;;;;;0.70;0.70;;;9.00;70.20;;;;;;5089659;28;20066;-73
2024/01/06 09:09:24;;;;;;;0.75;0.75;;;9.00;70.20;;;;;;5090986;28;20086;-73
2024/01/06 09:11:50;;;;;;;0.70;0.70;;;9.00;70.20;;;;;;5087528;28;20060;-72
2024/01/06 09:14:18;;;;;;;1.00;1.00;;;9.00;70.40;;;;;;5071796;28;20508;-73
2024/01/06 09:16:43;;;;;;;0.60;0.60;;;9.10;70.30;;;;;;5086746;28;20028;-72
2024/01/06 09:19:09;;;;;;;0.52;0.52;;;9.00;70.30;;;;;;5086779;28;20369;-72
2024/01/06 09:21:37;;;;;;;3.00;1.00;;;9.10;70.30;;;;;;5085633;28;20588;-72
2024/01/06 09:24:06;;;;;;;0.50;0.50;;;9.10;70.30;;;;;;5078727;28;20079;-72
2024/01/06 09:26:35;;;;;;;1.98;1.50;;;9.00;70.30;;;;;;5081085;28;20119;-72
2024/01/06 09:29:02;;;;;;;0.60;0.60;;;9.10;70.30;;;;;;5086979;28;20526;-73
2024/01/06 09:31:28;;;;;;;0.52;0.52;;;9.10;70.20;;;;;;5075975;28;20318;-73
2024/01/06 09:33:54;;;;;;;1.02;1.00;;;9.10;69.90;;;;;;5090055;28;20494;-73
2024/01/06 09:36:19;;;;;;;0.80;0.80;;;9.00;70.00;;;;;;5086401;28;20032;-73
2024/01/06 09:38:45;;;;;;;0.60;0.60;;;9.00;69.90;;;;;;5064658;28;20024;-74
2024/01/06 09:41:13;;;;;;;0.60;0.60;;;9.00;70.10;;;;;;5083792;28;20036;-72
2024/01/06 09:43:39;;;;;;;0.50;0.50;;;9.00;70.00;;;;;;5079951;28;20024;-73
2024/01/06 09:46:17;;;;;;;0.68;0.68;;;9.00;70.10;;;;;;5083857;28;20085;-73
2024/01/06 09:48:43;;;;;;;0.50;0.50;;;9.00;70.20;;;;;;5080834;28;20020;-73
2024/01/06 09:51:11;;;;;;;0.70;0.70;;;9.00;70.40;;;;;;5088518;28;20040;-73
2024/01/06 09:54:01;;;;;;;0.68;0.68;;;9.00;70.40;;;;;;5065578;28;20019;-73
2024/01/06 09:56:28;;;;;;;0.50;0.50;;;9.10;70.30;;;;;;5063374;28;20544;-73
2024/01/06 09:58:54;;;;;;;0.50;0.50;;;9.10;70.10;;;;;;5083831;28;20028;-73
2024/01/06 10:01:20;;;;;;;0.60;0.60;;;9.10;70.20;;;;;;5091498;28;20032;-75
2024/01/06 10:03:46;;;;;;;0.60;0.60;;;9.10;70.00;;;;;;5096599;28;20053;-75
2024/01/06 10:06:15;;;;;;;1.55;1.45;;;9.10;70.10;;;;;;5094958;28;20119;-76
2024/01/06 10:08:44;;;;;;;0.60;0.60;;;9.10;69.90;;;;;;5093075;28;20024;-76
2024/01/06 10:11:10;;;;;;;0.57;0.57;;;9.10;70.10;;;;;;5096674;28;20028;-75
2024/01/06 10:13:38;;;;;;;0.73;0.73;;;9.10;70.20;;;;;;5098795;28;20024;-75
2024/01/06 10:16:04;;;;;;;0.50;0.50;;;9.10;70.40;;;;;;5091401;28;20032;-76
2024/01/06 10:18:31;;;;;;;0.57;0.57;;;9.20;70.50;;;;;;5084882;28;20078;-75
2024/01/06 10:20:57;;;;;;;0.50;0.50;;;9.20;70.40;;;;;;5086496;28;20040;-75
2024/01/06 10:23:23;;;;;;;0.70;0.70;;;9.20;70.40;;;;;;5088196;28;20024;-75
2024/01/06 10:25:53;;;;;;;0.50;0.50;;;9.20;70.50;;;;;;5058873;28;20043;-75
2024/01/06 10:28:18;;;;;;;0.52;0.52;;;9.30;70.50;;;;;;5083208;28;20028;-75
2024/01/06 10:30:44;;;;;;;0.52;0.52;;;9.30;70.40;;;;;;5086260;28;20601;-75
2024/01/06 10:33:13;;;;;;;0.50;0.50;;;9.30;70.30;;;;;;5076641;28;20526;-76
2024/01/06 10:35:39;;;;;;;0.60;0.60;;;9.30;70.20;;;;;;5056689;28;20028;-75
2024/01/06 10:38:06;;;;;;;0.60;0.60;;;9.30;70.30;;;;;;5083902;28;20032;-76
2024/01/06 10:40:31;;;;;;;0.60;0.60;;;9.30;70.00;;;;;;5085450;28;20113;-76
2024/01/06 10:42:57;;;;;;;0.55;0.55;;;9.30;70.10;;;;;;5083567;28;20589;-75
2024/01/06 10:45:23;;;;;;;0.50;0.50;;;9.30;69.90;;;;;;5079444;28;20573;-73
2024/01/06 10:47:49;;;;;;;0.80;0.80;;;9.30;69.70;;;;;;5080654;28;20036;-75
2024/01/06 10:50:17;;;;;;;0.50;0.50;;;9.30;69.60;;;;;;5086022;28;20020;-75
2024/01/06 10:52:43;;;;;;;0.60;0.60;;;9.20;69.40;;;;;;5088824;28;20117;-75
2024/01/06 10:55:09;;;;;;;0.52;0.52;;;9.10;69.70;;;;;;5087374;28;20024;-74
2024/01/06 10:57:41;;;;;;;0.60;0.60;;;9.20;69.90;;;;;;5066951;28;20012;-74
2024/01/06 11:00:09;;;;;;;0.50;0.50;;;9.10;69.90;;;;;;5075885;28;20039;-74
2024/01/06 11:02:35;;;;;;;0.50;0.50;;;9.20;69.90;;;;;;5082703;28;20048;-75
2024/01/06 11:05:01;;;;;;;0.50;0.50;;;9.20;70.00;;;;;;5083412;28;20038;-75
2024/01/06 11:07:28;;;;;;;0.50;0.50;;;9.20;69.90;;;;;;5084159;28;20035;-75
2024/01/06 11:10:02;;;;;;;0.50;0.50;;;9.10;69.80;;;;;;5083822;28;20581;-76
2024/01/06 11:12:27;;;;;;;0.50;0.50;;;9.10;69.80;;;;;;5064910;28;20047;-76
2024/01/06 11:14:54;;;;;;;0.60;0.60;;;9.10;69.90;;;;;;5079173;28;20017;-75
2024/01/06 11:17:58;;;;;;;0.60;0.60;;;9.10;70.10;;;;;;5059266;28;20082;-75
2024/01/06 11:20:26;;;;;;;0.50;0.50;;;9.20;70.10;;;;;;5068092;28;20082;-75
2024/01/06 11:22:52;;;;;;;0.50;0.50;;;9.20;70.20;;;;;;5079756;28;20035;-76
2024/01/06 11:25:20;;;;;;;0.52;0.52;;;9.20;70.10;;;;;;5083951;28;20024;-75
2024/01/06 11:27:50;;;;;;;0.60;0.60;;;9.20;70.20;;;;;;5065333;28;20055;-75
2024/01/06 11:30:24;;;;;;;0.50;0.50;;;9.20;70.20;;;;;;5083361;28;20034;-75
2024/01/06 11:32:58;;;;;;;0.70;0.70;;;9.20;70.30;;;;;;5060275;28;20510;-75
2024/01/06 11:35:26;;;;;;;1.17;0.82;;;9.20;70.40;;;;;;5066351;28;20531;-74
2024/01/06 11:37:55;;;;;;;0.60;0.60;;;9.30;70.10;;;;;;5086057;28;20493;-75
2024/01/06 11:40:20;;;;;;;0.95;0.95;;;9.30;70.20;;;;;;5084708;28;20043;-75
2024/01/06 11:42:47;;;;;;;0.60;0.60;;;9.30;70.10;;;;;;5084929;28;20105;-75
2024/01/06 11:45:13;;;;;;;0.65;0.65;;;9.30;70.30;;;;;;5084462;28;20596;-75
2024/01/06 11:47:39;;;;;;;0.50;0.50;;;9.40;70.30;;;;;;5062580;28;20395;-75
2024/01/06 11:50:05;;;;;;;0.50;0.50;;;9.30;70.10;;;;;;5084596;28;20024;-75
2024/01/06 11:52:32;;;;;;;0.55;0.55;;;9.30;69.90;;;;;;5082081;28;20521;-75
2024/01/06 11:54:58;;;;;;;0.60;0.60;;;9.30;69.80;;;;;;5086088;28;20071;-75
2024/01/06 11:57:26;;;;;;;0.50;0.50;;;9.30;69.80;;;;;;5082120;28;21491;-75
2024/01/06 11:59:51;;;;;;;0.60;0.60;;;9.30;70.10;;;;;;5082536;28;20363;-76
2024/01/06 12:02:22;;;;;;;0.50;0.50;;;9.30;70.10;;;;;;5080527;28;20043;-75
2024/01/06 12:04:53;;;;;;;0.50;0.50;;;9.30;70.30;;;;;;5076197;28;20024;-75
2024/01/06 12:07:22;;;;;;;0.52;0.52;;;9.40;70.40;;;;;;5085291;28;20161;-76
2024/01/06 12:09:47;;;;;;;0.50;0.50;;;9.40;70.60;;;;;;5084264;28;20080;-76
2024/01/06 12:12:16;;;;;;;0.60;0.60;;;9.50;70.60;;;;;;5064103;28;20029;-76
2024/01/06 12:14:45;;;;;;;0.60;0.60;;;9.60;70.60;;;;;;5079647;28;20402;-76
2024/01/06 12:17:12;;;;;;;0.50;0.50;;;9.60;70.50;;;;;;5052146;28;20032;-76
2024/01/06 12:19:39;;;;;;;0.60;0.60;;;9.60;70.40;;;;;;5065660;28;20024;-76
2024/01/06 12:22:05;;;;;;;0.57;0.57;;;9.60;70.00;;;;;;5061572;28;20085;-76
2024/01/06 12:24:31;;;;;;;0.50;0.50;;;9.60;70.10;;;;;;5087785;28;20035;-76
2024/01/06 12:26:57;;;;;;;0.70;0.70;;;9.60;70.10;;;;;;5083956;28;20040;-76
2024/01/06 12:29:26;;;;;;;0.60;0.60;;;9.70;70.10;;;;;;5084165;28;20802;-76
2024/01/06 12:31:52;;;;;;;0.75;0.75;;;9.70;70.00;;;;;;5068962;28;20030;-76
2024/01/06 12:34:18;;;;;;;0.50;0.50;;;9.70;70.10;;;;;;5084060;28;20039;-76
2024/01/06 12:36:44;;;;;;;0.70;0.70;;;9.70;70.20;;;;;;5086417;28;20039;-76
2024/01/06 12:39:13;;;;;;;0.50;0.50;;;9.80;70.10;;;;;;5061993;28;20113;-76
2024/01/06 12:41:42;;;;;;;0.50;0.50;;;9.80;70.00;;;;;;5081915;28;20186;-76
2024/01/06 12:44:08;;;;;;;0.50;0.50;;;9.80;70.10;;;;;;5076035;28;20063;-76
2024/01/06 12:46:34;;;;;;;0.60;0.60;;;9.80;70.10;;;;;;5079761;28;20119;-76
2024/01/06 12:48:59;;;;;;;0.55;0.55;;;9.80;70.20;;;;;;5078057;28;20112;-76
2024/01/06 12:51:25;;;;;;;0.60;0.60;;;9.80;70.20;;;;;;5082123;28;20498;-75
2024/01/06 12:53:51;;;;;;;0.50;0.50;;;9.90;70.10;;;;;;5081923;28;20108;-75
2024/01/06 12:56:17;;;;;;;0.50;0.50;;;9.90;70.10;;;;;;5079069;28;20024;-75